Time;durP1;ratioP1;P1;durP2;ratioP2;P2;SDS_P1;SDS_P2;PMS_P1;PMS_P2;Temp;Humidity;BMP_temperature;BMP_pressure;BME280_temperature;BME280_humidity;BME280_pressure;Samples;Min_cycle;Max_cycle;Signal;HPM_P1;HPM_P2
2022/11/22 00:00:15;;;;;;;6.37;3.63;;;;;;;5.42;90.82;98418.28;5024367;23;20239;-66
2022/11/22 00:02:42;;;;;;;8.87;4.27;;;;;;;5.42;90.80;98417.41;4988082;28;20212;-62
2022/11/22 00:05:08;;;;;;;7.93;3.87;;;;;;;5.45;91.43;98431.41;4989852;28;20296;-64
2022/11/22 00:07:36;;;;;;;9.33;4.53;;;;;;;5.55;91.49;98432.28;4988815;28;20291;-63
2022/11/22 00:10:05;;;;;;;10.53;4.10;;;;;;;5.59;91.25;98424.41;4985644;28;20202;-62
2022/11/22 00:12:31;;;;;;;8.20;4.30;;;;;;;5.57;91.10;98417.41;4990000;28;20245;-64
2022/11/22 00:14:58;;;;;;;10.77;4.80;;;;;;;5.51;91.40;98414.78;4985009;28;20240;-64
2022/11/22 00:17:24;;;;;;;9.00;4.67;;;;;;;5.52;91.90;98409.53;4986884;28;20196;-62
2022/11/22 00:19:51;;;;;;;13.70;5.20;;;;;;;5.53;91.65;98392.03;4983997;28;20289;-66
2022/11/22 00:22:17;;;;;;;13.93;5.47;;;;;;;5.55;91.84;98385.91;4986710;28;20256;-62
2022/11/22 00:24:45;;;;;;;12.00;5.60;;;;;;;5.55;91.84;98383.28;4983804;28;20299;-64
2022/11/22 00:27:11;;;;;;;11.93;5.13;;;;;;;5.62;91.60;98376.31;4987947;28;20300;-62
2022/11/22 00:29:38;;;;;;;7.90;4.77;;;;;;;5.56;91.81;98382.41;4978047;28;20261;-65
2022/11/22 00:32:04;;;;;;;10.67;4.73;;;;;;;5.59;91.65;98368.41;4986234;28;20741;-61
2022/11/22 00:34:30;;;;;;;10.73;4.90;;;;;;;5.65;91.66;98377.19;4986416;28;20615;-62
2022/11/22 00:36:57;;;;;;;11.60;4.80;;;;;;;5.60;91.87;98370.16;4984815;28;20222;-63
2022/11/22 00:39:23;;;;;;;10.33;4.60;;;;;;;5.58;91.90;98366.66;4982678;28;20248;-63
2022/11/22 00:41:49;;;;;;;10.03;4.90;;;;;;;5.77;91.11;98371.06;4985994;28;20351;-62
2022/11/22 00:44:16;;;;;;;10.43;4.87;;;;;;;5.70;91.62;98371.06;4985345;28;20293;-62
2022/11/22 00:46:42;;;;;;;11.07;4.80;;;;;;;5.65;91.34;98374.56;4983836;28;20220;-64
2022/11/22 00:49:08;;;;;;;10.90;4.87;;;;;;;5.76;91.48;98378.94;4980813;28;20843;-63
2022/11/22 00:51:35;;;;;;;8.67;4.47;;;;;;;5.68;91.52;98370.19;4982628;28;20253;-64
2022/11/22 00:54:01;;;;;;;11.23;5.00;;;;;;;5.67;91.88;98382.44;4981206;28;20289;-65
2022/11/22 00:56:27;;;;;;;10.73;5.37;;;;;;;5.64;91.80;98383.31;4984761;28;20643;-62
2022/11/22 00:58:54;;;;;;;12.00;5.17;;;;;;;5.65;92.42;98379.81;4982611;28;20292;-62
2022/11/22 01:01:20;;;;;;;10.47;5.57;;;;;;;5.68;92.48;98378.06;4977339;28;20328;-63
2022/11/22 01:03:46;;;;;;;17.30;5.03;;;;;;;5.77;92.19;98389.44;4980889;28;20294;-62
2022/11/22 01:06:13;;;;;;;8.67;5.30;;;;;;;5.75;92.42;98392.94;4983961;28;20321;-63
2022/11/22 01:08:39;;;;;;;10.53;5.23;;;;;;;5.78;92.12;98393.81;4981662;28;20198;-64
2022/11/22 01:11:05;;;;;;;9.37;5.20;;;;;;;5.78;92.35;98392.94;4982267;28;20254;-62
2022/11/22 01:13:32;;;;;;;12.10;5.37;;;;;;;5.96;91.52;98388.56;4985259;28;20223;-62
2022/11/22 01:16:05;;;;;;;10.47;5.23;;;;;;;6.07;90.98;98391.22;4983837;28;20747;-63
2022/11/22 01:18:32;;;;;;;11.30;5.33;;;;;;;5.97;91.12;98392.09;4982508;28;20241;-64
2022/11/22 01:20:58;;;;;;;11.00;5.20;;;;;;;6.06;91.12;98407.00;4982972;28;20305;-65
2022/11/22 01:23:25;;;;;;;14.97;5.30;;;;;;;6.01;90.87;98395.63;4985154;28;20260;-64
2022/11/22 01:25:51;;;;;;;13.27;5.33;;;;;;;5.90;91.35;98393.84;4989244;28;20216;-64
2022/11/22 01:28:18;;;;;;;10.37;5.53;;;;;;;5.92;91.67;98397.34;4983922;28;20296;-63
2022/11/22 01:30:44;;;;;;;11.93;5.70;;;;;;;5.87;91.93;98403.44;4989841;28;20295;-63
2022/11/22 01:33:11;;;;;;;10.37;5.00;;;;;;;5.82;92.22;98410.44;4982168;28;20652;-64
2022/11/22 01:35:37;;;;;;;10.97;5.27;;;;;;;5.78;92.67;98413.94;4985198;28;20543;-63
2022/11/22 01:38:03;;;;;;;11.63;5.40;;;;;;;5.88;93.11;98420.94;4981138;28;20893;-63
2022/11/22 01:40:30;;;;;;;9.03;5.50;;;;;;;5.90;92.90;98411.34;4988345;28;20227;-65
2022/11/22 01:42:58;;;;;;;10.20;5.20;;;;;;;5.91;92.87;98420.97;4982927;28;20293;-64
2022/11/22 01:45:27;;;;;;;10.70;5.13;;;;;;;5.95;92.83;98423.59;4986976;28;20247;-63
2022/11/22 01:47:58;;;;;;;9.03;5.47;;;;;;;5.96;93.14;98428.00;4980757;28;20246;-65
2022/11/22 01:50:26;;;;;;;11.87;5.73;;;;;;;6.01;92.87;98428.00;4984672;28;20837;-63
2022/11/22 01:52:53;;;;;;;9.33;5.27;;;;;;;6.25;91.95;98427.09;4982750;28;20290;-66
2022/11/22 01:55:21;;;;;;;12.93;5.30;;;;;;;6.27;91.58;98426.22;4983398;28;20306;-63
2022/11/22 01:57:47;;;;;;;11.77;5.67;;;;;;;6.20;91.74;98426.25;4982429;28;20293;-63
2022/11/22 02:00:16;;;;;;;13.63;6.20;;;;;;;6.21;91.78;98425.38;4982231;28;20642;-63
2022/11/22 02:02:50;;;;;;;10.10;5.40;;;;;;;6.11;91.84;98427.13;4982416;28;20289;-63
2022/11/22 02:05:20;;;;;;;10.00;6.03;;;;;;;6.03;92.38;98428.88;4982381;28;20786;-63
2022/11/22 02:07:55;;;;;;;12.60;5.97;;;;;;;5.99;92.63;98440.25;4984367;28;20201;-63
2022/11/22 02:10:25;;;;;;;12.23;5.53;;;;;;;5.95;92.90;98441.13;4984631;28;20317;-63
2022/11/22 02:12:53;;;;;;;12.00;5.80;;;;;;;5.93;93.14;98449.00;4987277;28;20282;-65
2022/11/22 02:15:19;;;;;;;9.07;6.07;;;;;;;5.94;93.16;98452.50;4991271;28;20785;-64
2022/11/22 02:17:45;;;;;;;11.27;5.93;;;;;;;5.97;93.64;98449.88;5005099;28;20745;-65
2022/11/22 02:20:13;;;;;;;14.67;6.50;;;;;;;5.98;93.66;98455.13;4990688;28;20282;-64
2022/11/22 02:23:10;;;;;;;10.93;6.00;;;;;;;6.02;93.58;98447.28;4989557;28;20200;-62
2022/11/22 02:25:39;;;;;;;9.43;6.60;;;;;;;6.10;93.48;98446.41;4987589;28;20731;-62
2022/11/22 02:28:11;;;;;;;11.73;6.43;;;;;;;6.16;93.15;98435.00;4984607;28;20208;-62
2022/11/22 02:30:39;;;;;;;12.70;6.97;;;;;;;6.13;93.02;98437.63;4990239;28;20311;-63
2022/11/22 02:33:07;;;;;;;9.53;6.37;;;;;;;6.10;93.24;98438.50;4981746;28;20830;-63
2022/11/22 02:35:33;;;;;;;11.03;6.60;;;;;;;6.16;92.62;98432.38;4992485;28;20270;-63
2022/11/22 02:38:23;;;;;;;10.67;6.30;;;;;;;6.28;91.72;98433.22;4983706;28;20931;-65
2022/11/22 02:41:02;;;;;;;11.60;6.67;;;;;;;6.05;91.85;98444.66;4983417;28;20326;-65
2022/11/22 02:43:31;;;;;;;10.20;6.03;;;;;;;5.88;91.96;98463.84;4989648;28;20205;-63
2022/11/22 02:46:06;;;;;;;11.57;6.73;;;;;;;5.76;92.52;98469.09;4983081;28;20254;-63
2022/11/22 02:48:33;;;;;;;11.10;7.10;;;;;;;5.69;92.90;98471.72;4989234;28;20203;-63
2022/11/22 02:51:00;;;;;;;9.47;6.20;;;;;;;5.59;92.99;98471.69;4988228;28;20311;-63
2022/11/22 02:53:29;;;;;;;10.30;6.77;;;;;;;5.51;93.26;98448.91;4989693;28;20265;-63
2022/11/22 02:55:55;;;;;;;14.73;6.80;;;;;;;5.56;93.80;98447.16;4989443;28;20207;-63
2022/11/22 02:58:22;;;;;;;11.10;6.53;;;;;;;5.52;93.68;98443.66;4985763;28;20578;-64
2022/11/22 03:00:48;;;;;;;12.63;6.90;;;;;;;5.54;93.93;98444.53;4989231;28;20299;-63
2022/11/22 03:03:14;;;;;;;12.07;7.17;;;;;;;5.51;93.93;98451.53;4979863;28;20204;-64
2022/11/22 03:05:41;;;;;;;12.63;7.23;;;;;;;5.49;94.24;98462.03;4986226;28;20620;-63
2022/11/22 03:08:07;;;;;;;10.30;7.17;;;;;;;5.51;94.44;98462.91;4984927;28;20196;-63
2022/11/22 03:10:34;;;;;;;12.37;6.90;;;;;;;5.54;94.55;98469.91;4988417;28;20648;-62
2022/11/22 03:13:02;;;;;;;9.83;7.30;;;;;;;5.47;94.45;98455.03;4988633;28;20198;-63
2022/11/22 03:15:29;;;;;;;11.07;7.43;;;;;;;5.55;94.45;98464.69;4985869;28;20214;-65
2022/11/22 03:17:57;;;;;;;10.63;7.20;;;;;;;5.59;94.57;98469.06;4975253;28;20747;-64
2022/11/22 03:20:23;;;;;;;12.97;7.30;;;;;;;5.64;94.76;98469.09;4972792;28;20236;-64
2022/11/22 03:22:50;;;;;;;12.33;6.70;;;;;;;5.68;94.86;98476.09;4978693;28;20211;-63
2022/11/22 03:25:16;;;;;;;12.87;7.47;;;;;;;5.77;94.91;98481.38;4988997;28;20234;-64
2022/11/22 03:27:42;;;;;;;12.87;7.43;;;;;;;5.81;94.87;98485.75;4977888;28;20327;-63
2022/11/22 03:30:09;;;;;;;12.07;6.87;;;;;;;5.80;94.51;98472.63;4982392;28;20749;-63
2022/11/22 03:32:35;;;;;;;11.40;7.13;;;;;;;5.77;94.58;98481.38;4982958;28;20211;-64
2022/11/22 03:35:02;;;;;;;11.90;7.07;;;;;;;5.72;94.45;98491.00;4976423;28;20209;-65
2022/11/22 03:37:29;;;;;;;13.97;7.50;;;;;;;5.64;94.19;98490.09;4981453;28;20248;-64
2022/11/22 03:39:55;;;;;;;13.20;7.77;;;;;;;5.56;94.42;98495.31;4987612;28;20737;-63
2022/11/22 03:42:22;;;;;;;12.23;7.23;;;;;;;5.57;94.44;98504.94;4982894;28;20288;-65
2022/11/22 03:44:48;;;;;;;11.90;7.47;;;;;;;5.56;94.43;98505.81;4984172;28;20222;-63
2022/11/22 03:47:15;;;;;;;12.00;6.97;;;;;;;5.57;94.59;98509.31;4985976;28;20703;-64
2022/11/22 03:49:41;;;;;;;14.73;8.00;;;;;;;5.54;94.60;98504.94;4986857;28;20200;-63
2022/11/22 03:52:08;;;;;;;13.37;8.20;;;;;;;5.50;94.51;98505.78;4985903;28;20242;-63
2022/11/22 03:54:34;;;;;;;12.40;7.50;;;;;;;5.43;94.63;98500.53;4988559;28;20201;-65
2022/11/22 03:57:00;;;;;;;10.80;7.43;;;;;;;5.35;94.23;98496.13;4984499;28;20190;-63
2022/11/22 03:59:27;;;;;;;13.13;7.63;;;;;;;5.28;94.54;98501.34;4982165;28;20699;-63
2022/11/22 04:01:54;;;;;;;14.40;7.70;;;;;;;5.22;94.29;98498.72;4983705;28;20786;-63
2022/11/22 04:04:20;;;;;;;11.37;7.03;;;;;;;5.11;94.52;98488.16;4987559;28;20250;-63
2022/11/22 04:06:47;;;;;;;10.27;6.60;;;;;;;5.07;94.75;98496.88;4981140;28;20219;-64
2022/11/22 04:09:13;;;;;;;11.57;6.83;;;;;;;4.99;94.50;98498.59;4986003;28;20199;-63
2022/11/22 04:11:40;;;;;;;12.67;8.27;;;;;;;4.94;94.54;98500.31;4987304;28;20228;-64
2022/11/22 04:16:53;;;;;;;12.10;7.33;;;;;;;4.94;94.99;98495.94;4983918;28;20200;-62
2022/11/22 04:19:20;;;;;;;11.77;7.67;;;;;;;4.91;94.96;98495.94;4985929;28;20283;-62
2022/11/22 04:21:46;;;;;;;14.03;7.80;;;;;;;4.98;95.53;98496.84;4985898;28;20689;-63
2022/11/22 04:26:57;;;;;;;12.47;7.63;;;;;;;5.02;95.64;98494.25;4985995;28;20219;-65
2022/11/22 04:29:24;;;;;;;14.93;8.63;;;;;;;5.16;95.70;98503.91;4981609;28;20723;-64
2022/11/22 04:34:36;;;;;;;14.00;8.00;;;;;;;5.34;95.59;98498.75;4984672;28;20324;-63
2022/11/22 04:37:03;;;;;;;16.07;8.47;;;;;;;5.31;95.81;98499.63;4981682;28;20198;-64
2022/11/22 04:39:30;;;;;;;14.83;8.27;;;;;;;5.24;95.31;98502.22;4986471;28;20250;-65
2022/11/22 04:44:43;;;;;;;11.70;7.73;;;;;;;4.89;94.38;98504.66;4984447;28;20290;-65
2022/11/22 04:50:01;;;;;;;18.83;8.13;;;;;;;4.73;95.24;98514.16;4983758;28;20204;-64
2022/11/22 04:55:12;;;;;;;15.07;8.10;;;;;;;4.66;95.01;98526.38;4988645;28;20690;-64
2022/11/22 04:57:38;;;;;;;12.77;7.33;;;;;;;4.56;94.93;98523.69;4986156;28;20220;-65
2022/11/22 05:00:06;;;;;;;13.63;8.47;;;;;;;4.49;95.12;98538.50;4982990;28;20293;-64
2022/11/22 05:02:32;;;;;;;14.70;8.03;;;;;;;4.46;95.40;98541.09;4985681;28;20207;-66
2022/11/22 05:04:58;;;;;;;15.07;8.33;;;;;;;4.48;95.54;98533.22;4981525;28;20235;-62
2022/11/22 05:07:25;;;;;;;13.87;8.57;;;;;;;4.57;96.01;98539.41;4983469;28;20649;-63
2022/11/22 05:09:51;;;;;;;14.80;8.30;;;;;;;4.63;95.99;98547.31;4983333;28;20446;-63
2022/11/22 05:12:17;;;;;;;14.57;8.17;;;;;;;4.76;96.21;98544.78;4986986;28;20201;-65
2022/11/22 05:14:44;;;;;;;14.13;8.20;;;;;;;4.90;96.55;98535.28;4981269;28;20207;-64
2022/11/22 05:17:10;;;;;;;15.00;8.67;;;;;;;4.97;96.26;98537.06;4982862;28;20199;-64
2022/11/22 05:19:39;;;;;;;16.10;8.47;;;;;;;4.98;96.31;98538.81;4987692;28;20233;-63
2022/11/22 05:22:11;;;;;;;13.97;8.30;;;;;;;4.92;95.97;98541.41;4983363;28;20272;-63
2022/11/22 05:24:37;;;;;;;14.93;9.00;;;;;;;4.92;96.09;98544.03;4986031;28;20287;-63
2022/11/22 05:27:04;;;;;;;13.97;8.70;;;;;;;4.91;95.50;98542.28;4982771;28;20756;-62
2022/11/22 05:29:30;;;;;;;14.10;8.43;;;;;;;4.83;95.25;98541.34;4983544;28;20209;-63
2022/11/22 05:31:57;;;;;;;13.93;8.73;;;;;;;4.70;95.44;98550.84;4980571;28;20304;-64
2022/11/22 05:34:23;;;;;;;12.97;8.73;;;;;;;4.67;94.89;98558.69;4985451;28;20197;-63
2022/11/22 05:36:50;;;;;;;15.27;9.33;;;;;;;4.54;95.13;98563.00;4986542;28;20310;-63
2022/11/22 05:39:16;;;;;;;15.60;8.50;;;;;;;4.52;95.49;98569.97;4987404;28;20200;-63
2022/11/22 05:41:54;;;;;;;12.57;7.10;;;;;;;4.51;96.07;98569.94;4983619;28;20236;-63
2022/11/22 05:44:22;;;;;;;14.83;7.73;;;;;;;4.63;96.35;98583.16;4984764;28;20208;-63
2022/11/22 05:46:49;;;;;;;14.13;7.40;;;;;;;4.75;96.34;98577.97;4988733;28;20854;-63
2022/11/22 05:49:15;;;;;;;12.93;6.03;;;;;;;4.83;96.67;98591.19;4985821;28;20678;-62
2022/11/22 05:51:41;;;;;;;14.27;6.60;;;;;;;4.98;96.74;98592.16;4989297;28;20250;-65
2022/11/22 05:54:08;;;;;;;11.87;6.47;;;;;;;5.08;96.88;98587.84;4987548;28;20197;-63
2022/11/22 05:56:34;;;;;;;10.57;5.57;;;;;;;5.13;96.66;98590.47;4984677;28;20275;-65
2022/11/22 05:59:00;;;;;;;10.77;5.63;;;;;;;5.16;96.69;98590.50;4983249;28;20278;-63
2022/11/22 06:01:27;;;;;;;13.40;4.97;;;;;;;5.19;96.28;98590.50;5024206;23;20230;-67
2022/11/22 06:03:53;;;;;;;13.63;4.97;;;;;;;5.17;96.52;98593.13;5026533;28;20232;-65
2022/11/22 06:06:20;;;;;;;12.73;4.30;;;;;;;5.19;96.20;98601.88;5025677;28;20195;-65
2022/11/22 06:08:47;;;;;;;14.27;3.60;;;;;;;5.20;96.32;98594.88;5023757;28;20310;-66
2022/11/22 06:11:22;;;;;;;9.90;3.70;;;;;;;5.18;96.46;98597.50;5020332;28;20228;-66
2022/11/22 06:13:52;;;;;;;12.03;3.90;;;;;;;5.23;96.13;98601.06;5024698;28;20363;-65
2022/11/22 06:16:18;;;;;;;11.27;3.23;;;;;;;5.30;95.85;98596.72;5023334;28;20620;-65
2022/11/22 06:18:45;;;;;;;6.87;3.10;;;;;;;5.33;95.32;98609.84;5019252;28;20712;-65
2022/11/22 06:21:17;;;;;;;14.17;3.83;;;;;;;5.35;94.73;98605.50;5016042;28;20225;-63
2022/11/22 06:23:44;;;;;;;9.47;3.00;;;;;;;5.33;95.02;98623.84;5022592;28;20256;-65
2022/11/22 06:26:13;;;;;;;8.97;2.80;;;;;;;5.33;94.93;98631.72;5019747;28;20248;-65
2022/11/22 06:28:40;;;;;;;14.87;3.17;;;;;;;5.33;94.71;98634.34;5021847;28;20272;-64
2022/11/22 06:31:12;;;;;;;16.33;3.40;;;;;;;5.34;94.84;98636.09;5016951;28;20322;-65
2022/11/22 06:33:40;;;;;;;12.13;2.80;;;;;;;5.31;95.04;98635.22;5017975;28;20288;-65
2022/11/22 06:36:09;;;;;;;9.00;3.10;;;;;;;5.35;95.00;98643.13;5020148;28;20223;-65
2022/11/22 06:38:37;;;;;;;12.23;3.27;;;;;;;5.38;94.87;98654.50;5019841;28;20195;-63
2022/11/22 06:41:11;;;;;;;10.63;3.40;;;;;;;5.38;94.52;98646.63;5021215;28;20230;-65
2022/11/22 06:43:40;;;;;;;11.60;2.77;;;;;;;5.31;94.73;98648.34;5024870;28;20288;-64
2022/11/22 06:46:13;;;;;;;11.33;3.20;;;;;;;5.43;93.59;98653.66;5025239;28;20193;-63
2022/11/22 06:48:41;;;;;;;14.37;3.37;;;;;;;5.38;93.84;98657.13;5021733;28;20266;-65
2022/11/22 06:51:16;;;;;;;6.80;2.93;;;;;;;5.34;94.03;98656.22;5021984;28;20670;-65
2022/11/22 06:53:43;;;;;;;11.13;3.00;;;;;;;5.37;93.66;98652.75;5025960;28;20611;-65
2022/11/22 06:56:35;;;;;;;9.40;2.87;;;;;;;5.35;94.12;98658.88;5015819;28;20219;-63
2022/11/22 06:59:03;;;;;;;12.73;2.90;;;;;;;5.37;93.52;98661.50;5024565;28;20224;-64
2022/11/22 07:01:31;;;;;;;11.03;2.90;;;;;;;5.41;93.63;98673.78;5028655;28;20619;-64
2022/11/22 07:03:59;;;;;;;10.20;2.93;;;;;;;5.36;93.83;98670.25;5020753;28;20194;-65
2022/11/22 07:06:27;;;;;;;10.03;3.03;;;;;;;5.40;93.44;98681.63;4990903;28;20218;-65
2022/11/22 07:08:54;;;;;;;8.30;3.47;;;;;;;5.38;93.58;98665.88;5030066;28;20695;-64
2022/11/22 07:11:23;;;;;;;8.13;2.70;;;;;;;5.45;93.70;98672.91;5026505;28;20704;-65
2022/11/22 07:13:50;;;;;;;13.17;3.33;;;;;;;5.50;93.38;98675.56;5025458;28;20269;-65
2022/11/22 07:16:19;;;;;;;12.40;3.53;;;;;;;5.57;92.89;98679.97;5025806;28;20229;-65
2022/11/22 07:18:47;;;;;;;11.90;3.50;;;;;;;5.59;92.49;98679.09;5022698;28;20197;-65
2022/11/22 07:21:19;;;;;;;11.93;3.47;;;;;;;5.70;92.16;98684.44;5031361;28;20641;-66
2022/11/22 07:23:47;;;;;;;9.57;3.00;;;;;;;5.79;91.55;98678.34;5021939;28;20286;-66
2022/11/22 07:26:15;;;;;;;8.37;2.97;;;;;;;5.96;88.83;98679.31;5022047;28;20238;-65
2022/11/22 07:28:42;;;;;;;8.10;2.97;;;;;;;6.04;88.16;98685.53;5022299;28;20775;-65
2022/11/22 07:31:11;;;;;;;8.87;3.10;;;;;;;6.08;87.35;98678.53;5024509;28;20649;-66
2022/11/22 07:33:37;;;;;;;10.13;2.80;;;;;;;6.18;87.07;98699.56;5022994;28;20229;-66
2022/11/22 07:36:09;;;;;;;10.83;2.93;;;;;;;6.19;87.03;98696.06;5027289;28;20198;-66
2022/11/22 07:38:36;;;;;;;12.83;3.50;;;;;;;6.23;86.66;98700.47;5023021;28;20748;-66
2022/11/22 07:41:03;;;;;;;11.13;2.80;;;;;;;6.31;85.92;98692.59;5018267;28;20749;-66
2022/11/22 07:43:30;;;;;;;11.20;2.50;;;;;;;6.33;85.97;98698.75;5022969;28;20224;-64
2022/11/22 07:46:01;;;;;;;15.60;2.90;;;;;;;6.45;85.15;98700.53;5024538;28;20196;-65
2022/11/22 07:48:27;;;;;;;8.97;2.50;;;;;;;6.50;83.72;98711.94;5017163;28;20634;-65
2022/11/22 07:50:54;;;;;;;14.27;2.83;;;;;;;6.54;82.95;98706.69;5021322;28;20282;-65
2022/11/22 07:53:20;;;;;;;6.97;2.30;;;;;;;6.61;83.17;98718.09;5026319;28;20258;-65
2022/11/22 07:55:47;;;;;;;6.77;2.23;;;;;;;6.66;83.25;98723.38;5022716;28;20286;-66
2022/11/22 07:58:13;;;;;;;7.03;2.20;;;;;;;6.72;83.00;98723.38;5019105;28;20672;-65
2022/11/22 08:00:39;;;;;;;8.57;2.60;;;;;;;6.72;82.77;98716.38;5024897;28;20224;-65
2022/11/22 08:03:07;;;;;;;12.00;2.53;;;;;;;6.79;82.16;98725.13;5024976;28;20234;-66
2022/11/22 08:05:33;;;;;;;11.37;2.50;;;;;;;6.81;81.34;98732.19;5026448;28;20627;-66
2022/11/22 08:07:59;;;;;;;10.90;2.47;;;;;;;6.90;80.68;98741.84;5020530;28;20298;-66
2022/11/22 08:10:26;;;;;;;7.50;2.60;;;;;;;6.88;80.95;98752.38;5021831;28;20199;-66
2022/11/22 08:12:52;;;;;;;6.20;2.70;;;;;;;6.84;80.72;98728.69;5024867;28;20247;-66
2022/11/22 08:15:18;;;;;;;8.13;2.30;;;;;;;6.98;79.65;98741.84;5024430;28;20228;-63
2022/11/22 08:17:45;;;;;;;6.53;2.40;;;;;;;7.04;78.44;98750.63;5018825;28;20290;-65
2022/11/22 08:20:12;;;;;;;11.93;2.63;;;;;;;7.05;78.88;98755.00;5021272;28;20273;-65
2022/11/22 08:22:39;;;;;;;11.50;2.20;;;;;;;7.04;78.63;98742.72;5023763;28;20203;-66
2022/11/22 08:25:11;;;;;;;6.40;2.07;;;;;;;7.05;78.96;98743.59;5026458;28;20254;-65
2022/11/22 08:27:39;;;;;;;9.57;2.07;;;;;;;7.15;78.76;98742.72;5018383;28;20211;-65
2022/11/22 08:30:07;;;;;;;6.97;2.53;;;;;;;7.14;78.88;98756.75;5023136;28;20201;-65
2022/11/22 08:32:33;;;;;;;10.13;2.50;;;;;;;7.21;78.39;98751.53;5023071;28;20607;-66
2022/11/22 08:35:00;;;;;;;10.13;2.30;;;;;;;7.24;78.60;98745.38;5024361;28;20569;-65
2022/11/22 08:37:26;;;;;;;9.50;2.50;;;;;;;7.21;78.09;98734.84;5025483;28;20201;-65
2022/11/22 08:39:53;;;;;;;7.93;2.27;;;;;;;7.35;77.65;98758.53;5024301;28;20292;-66
2022/11/22 08:42:19;;;;;;;7.33;2.33;;;;;;;7.34;77.55;98754.16;5025920;28;20228;-65
2022/11/22 08:44:45;;;;;;;7.13;2.20;;;;;;;7.33;76.67;98739.25;5018527;28;20203;-66
2022/11/22 08:47:12;;;;;;;8.20;2.07;;;;;;;7.32;76.48;98748.00;5017910;28;20280;-65
2022/11/22 08:49:38;;;;;;;6.50;2.10;;;;;;;7.30;76.44;98741.88;5019172;28;20254;-64
2022/11/22 08:52:04;;;;;;;6.50;2.17;;;;;;;7.36;75.99;98755.91;5024647;28;20243;-65
2022/11/22 08:54:31;;;;;;;8.23;2.20;;;;;;;7.36;74.89;98755.03;5017664;28;20817;-66
2022/11/22 08:57:03;;;;;;;7.73;2.77;;;;;;;7.37;74.75;98759.41;5031908;23;20230;-66
2022/11/22 08:59:29;;;;;;;9.87;2.00;;;;;;;7.37;74.81;98762.06;5020377;28;20281;-65
2022/11/22 09:01:56;;;;;;;6.70;2.00;;;;;;;7.38;74.35;98772.59;5013582;28;20241;-67
2022/11/22 09:04:22;;;;;;;6.80;2.07;;;;;;;7.45;74.53;98771.69;5001596;28;20683;-64
2022/11/22 09:06:49;;;;;;;7.47;1.80;;;;;;;7.47;74.66;98783.13;5004075;28;20273;-66
2022/11/22 09:09:35;;;;;;;6.77;2.03;;;;;;;7.55;74.35;98786.63;5001483;28;20216;-66
2022/11/22 09:12:07;;;;;;;7.83;1.60;;;;;;;7.62;73.50;98781.38;5005794;28;20216;-65
2022/11/22 09:14:34;;;;;;;7.27;1.97;;;;;;;7.75;73.49;98767.28;5029096;23;20281;-64
2022/11/22 09:17:00;;;;;;;5.50;2.10;;;;;;;7.95;72.61;98772.50;5017211;28;20219;-64
2022/11/22 09:19:26;;;;;;;9.07;1.90;;;;;;;8.11;72.91;98776.88;5021038;28;20284;-63
2022/11/22 09:21:53;;;;;;;4.97;1.50;;;;;;;8.13;72.01;98777.75;5018008;28;20205;-62
2022/11/22 09:24:20;;;;;;;8.07;2.60;;;;;;;8.18;71.80;98778.63;5023661;28;20222;-62
2022/11/22 09:26:46;;;;;;;5.50;1.80;;;;;;;8.28;71.59;98784.72;5024921;28;20238;-63
2022/11/22 09:29:14;;;;;;;8.33;2.37;;;;;;;8.47;71.14;98784.72;5017804;28;20218;-63
2022/11/22 09:31:41;;;;;;;13.73;2.50;;;;;;;8.56;70.54;98782.91;5015059;28;20192;-63
2022/11/22 09:34:07;;;;;;;6.73;1.90;;;;;;;8.70;69.85;98787.22;5012840;28;20213;-63
2022/11/22 09:36:33;;;;;;;8.67;2.03;;;;;;;8.71;70.25;98786.34;5021011;28;20269;-64
2022/11/22 09:39:00;;;;;;;5.03;1.90;;;;;;;8.75;69.60;98774.88;5024927;28;20662;-63
2022/11/22 09:41:32;;;;;;;6.00;1.60;;;;;;;8.67;69.86;98771.41;5022847;28;20709;-65
2022/11/22 09:44:36;;;;;;;10.30;2.70;;;;;;;8.72;69.61;98772.25;5021742;28;20718;-63
2022/11/22 09:47:17;;;;;;;6.13;2.00;;;;;;;8.74;69.39;98766.97;5012924;28;20195;-63
2022/11/22 09:50:03;;;;;;;6.53;2.40;;;;;;;8.76;69.54;98755.50;5018166;28;20743;-64
2022/11/22 09:52:39;;;;;;;6.37;2.13;;;;;;;8.91;67.91;98764.25;5012122;28;20201;-64
2022/11/22 09:55:13;;;;;;;6.17;2.30;;;;;;;8.87;67.56;98757.25;5021868;28;20741;-61
2022/11/22 09:57:50;;;;;;;6.37;1.70;;;;;;;9.01;67.41;98753.63;5023575;28;20206;-63
2022/11/22 10:00:27;;;;;;;6.60;1.77;;;;;;;8.90;66.59;98749.31;5025134;28;20286;-62
2022/11/22 10:03:03;;;;;;;6.17;1.80;;;;;;;9.06;66.84;98751.81;5021818;28;20221;-66
2022/11/22 10:05:37;;;;;;;6.47;1.80;;;;;;;9.13;66.28;98747.38;5017541;28;20256;-63
2022/11/22 10:08:23;;;;;;;5.47;1.83;;;;;;;9.13;66.78;98746.50;5019510;28;20207;-63
2022/11/22 10:10:55;;;;;;;7.83;1.80;;;;;;;9.14;66.85;98738.56;5025901;28;20677;-64
2022/11/22 10:13:29;;;;;;;3.90;1.80;;;;;;;9.17;65.88;98738.53;5023101;28;20568;-65
2022/11/22 10:16:06;;;;;;;13.17;1.97;;;;;;;9.16;66.13;98749.97;5027832;28;20261;-63
2022/11/22 10:18:42;;;;;;;5.67;1.90;;;;;;;9.25;66.38;98755.22;5021493;28;20237;-63
2022/11/22 10:21:13;;;;;;;5.23;1.83;;;;;;;9.17;66.47;98750.84;5025770;28;20197;-64
2022/11/22 10:23:41;;;;;;;8.23;2.27;;;;;;;9.22;65.89;98757.88;5016771;28;20265;-62
2022/11/22 10:26:31;;;;;;;7.80;2.33;;;;;;;9.18;66.33;98748.19;5023726;28;20564;-62
2022/11/22 10:29:22;;;;;;;8.30;2.17;;;;;;;9.09;66.90;98751.78;5025221;28;20781;-63
2022/11/22 10:32:15;;;;;;;9.33;1.80;;;;;;;9.08;66.69;98750.03;5022830;28;20289;-63
2022/11/22 10:34:47;;;;;;;5.87;2.13;;;;;;;9.12;66.92;98745.63;5021628;28;20217;-64
2022/11/22 10:37:31;;;;;;;8.93;1.90;;;;;;;9.09;65.08;98729.78;5024759;28;20259;-64
2022/11/22 10:40:09;;;;;;;11.07;2.30;;;;;;;9.18;65.44;98734.13;5028485;28;20215;-63
2022/11/22 10:43:03;;;;;;;7.03;1.83;;;;;;;9.31;65.72;98730.50;5029078;28;20206;-64
2022/11/22 10:45:35;;;;;;;7.90;1.77;;;;;;;9.19;66.18;98726.19;5019113;28;20215;-63
2022/11/22 10:48:29;;;;;;;6.87;2.47;;;;;;;9.17;66.30;98720.03;5025893;28;20217;-65
2022/11/22 10:51:29;;;;;;;8.47;2.10;;;;;;;8.99;67.27;98717.56;5021253;28;20265;-64
2022/11/22 10:54:19;;;;;;;8.70;1.83;;;;;;;8.91;67.11;98722.00;5028891;28;20307;-64
2022/11/22 10:56:52;;;;;;;10.33;1.70;;;;;;;8.76;67.41;98715.94;5024073;28;20682;-63
2022/11/22 10:59:30;;;;;;;4.37;1.50;;;;;;;8.70;67.53;98720.38;5020833;28;20715;-63
2022/11/22 11:02:28;;;;;;;6.93;2.17;;;;;;;8.68;67.99;98730.06;5024715;28;20582;-62
2022/11/22 11:04:58;;;;;;;5.00;2.10;;;;;;;8.82;68.38;98728.25;5028991;28;20294;-62
2022/11/22 11:07:25;;;;;;;4.00;1.60;;;;;;;8.93;67.03;98720.25;5023899;28;20223;-63
2022/11/22 11:09:55;;;;;;;10.63;1.70;;;;;;;9.19;66.28;98723.53;5023780;28;20229;-63
2022/11/22 11:12:45;;;;;;;5.93;1.70;;;;;;;9.37;65.09;98731.34;5029326;28;20207;-63
2022/11/22 11:15:20;;;;;;;8.10;1.43;;;;;;;9.39;65.43;98726.03;5023734;28;20753;-64
2022/11/22 11:17:56;;;;;;;4.07;1.50;;;;;;;9.32;64.78;98719.06;5023549;28;20281;-63
2022/11/22 11:20:31;;;;;;;5.93;1.60;;;;;;;9.25;65.04;98728.81;5024556;28;21458;-65
2022/11/22 11:22:58;;;;;;;3.33;1.27;;;;;;;9.16;64.64;98739.41;5025795;28;20293;-64
2022/11/22 11:25:43;;;;;;;5.50;1.60;;;;;;;9.14;64.96;98730.63;5022077;28;20205;-62
2022/11/22 11:28:15;;;;;;;4.23;1.47;;;;;;;9.20;65.36;98729.69;5026919;28;20201;-61
2022/11/22 11:30:45;;;;;;;4.27;1.43;;;;;;;9.15;64.65;98723.59;5019278;28;20712;-63
2022/11/22 11:33:19;;;;;;;2.60;1.20;;;;;;;9.21;64.72;98731.47;5020872;28;20210;-64
2022/11/22 11:35:46;;;;;;;6.10;1.30;;;;;;;9.30;64.17;98727.00;5020508;28;20291;-63
2022/11/22 11:38:31;;;;;;;6.27;0.97;;;;;;;9.42;64.19;98721.59;5018349;28;20232;-64
2022/11/22 11:41:16;;;;;;;6.10;1.23;;;;;;;9.55;63.86;98722.34;5026286;28;20288;-63
2022/11/22 11:43:43;;;;;;;4.73;1.63;;;;;;;9.64;63.18;98718.78;5021356;28;20694;-64
2022/11/22 11:46:17;;;;;;;3.70;1.10;;;;;;;9.80;62.72;98722.13;5024379;28;20246;-63
2022/11/22 11:48:45;;;;;;;7.93;1.30;;;;;;;9.88;62.79;98729.06;5025302;28;20310;-63
2022/11/22 11:51:19;;;;;;;8.30;1.60;;;;;;;9.78;63.14;98714.22;5019126;28;20225;-64
2022/11/22 11:53:59;;;;;;;5.47;1.23;;;;;;;9.82;63.02;98718.56;5021650;28;20228;-63
2022/11/22 11:56:50;;;;;;;4.60;1.23;;;;;;;9.64;62.96;98718.78;5022706;28;20199;-62
2022/11/22 11:59:19;;;;;;;6.90;1.30;;;;;;;9.58;63.36;98726.72;5020518;28;20285;-63
2022/11/22 12:01:53;;;;;;;3.43;1.30;;;;;;;9.42;64.64;98724.25;5023456;28;20236;-63
2022/11/22 12:04:26;;;;;;;3.57;1.17;;;;;;;9.33;64.20;98721.69;5021048;28;20228;-63